Time,TemperatureF,DewpointF,PressureIn,WindDirection,WindDirectionDegrees,WindSpeedMPH,WindSpeedGustMPH,Humidity,HourlyPrecipIn,Conditions,Clouds,dailyrainin,SolarRadiationWatts/m^2,SoftwareType,DateUTC
2013-01-05 00:00:00,40.1,23.0,30.33,NNE,22,4.0,10.0,50,0.00,,SCT,0.00,0.00,VWS V14.01,2013-01-05 05:00:00,
2013-01-05 00:06:00,42.2,36.5,30.31,SSW,192,4.0,13.0,80,0.00,,SCT,0.00,0.00,VWS V14.01,2013-01-05 05:06:00,
2013-01-05 00:11:00,42.2,36.5,30.31,SSW,192,4.0,13.0,80,0.00,,SCT,0.00,0.00,VWS V14.01,2013-01-05 05:11:00,
2013-01-05 00:17:00,42.2,36.5,30.31,SSW,192,4.0,13.0,80,0.00,,SCT,0.00,0.00,VWS V14.01,2013-01-05 05:17:00,
2013-01-05 00:25:00,42.2,36.5,30.31,SSW,192,4.0,13.0,80,0.00,,SCT,0.00,0.00,VWS V14.01,2013-01-05 05:25:00,
2013-01-05 00:31:00,42.2,36.5,30.31,SSW,192,4.0,13.0,80,0.00,,SCT,0.00,0.00,VWS V14.01,2013-01-05 05:31:00,
2013-01-05 00:38:00,42.2,36.5,30.31,SSW,192,4.0,13.0,80,0.00,,SCT,0.00,0.00,VWS V14.01,2013-01-05 05:38:00,
2013-01-05 00:43:00,42.2,36.5,30.31,SSW,192,4.0,13.0,80,0.00,,SCT,0.00,0.00,VWS V14.01,2013-01-05 05:43:00,
2013-01-05 00:48:00,42.2,36.5,30.31,SSW,192,4.0,13.0,80,0.00,,SCT,0.00,0.00,VWS V14.01,2013-01-05 05:48:00,
2013-01-05 00:55:00,42.2,36.5,30.31,SSW,192,4.0,13.0,80,0.00,,SCT,0.00,0.00,VWS V14.01,2013-01-05 05:55:00,
2013-01-05 01:00:00,40.0,22.9,30.34,NE,45,7.0,13.0,50,0.00,,SCT,0.00,0.00,VWS V14.01,2013-01-05 06:00:00,
2013-01-05 01:04:00,42.2,36.5,30.31,SSW,192,4.0,13.0,80,0.00,,SCT,0.00,0.00,VWS V14.01,2013-01-05 06:04:00,
2013-01-05 01:10:00,42.2,36.5,30.31,SSW,192,4.0,13.0,80,0.00,,SCT,0.00,0.00,VWS V14.01,2013-01-05 06:10:00,
2013-01-05 01:16:00,42.2,36.5,30.31,SSW,192,4.0,13.0,80,0.00,,SCT,0.00,0.00,VWS V14.01,2013-01-05 06:16:00,
2013-01-05 01:21:00,42.2,36.5,30.31,SSW,192,4.0,13.0,80,0.00,,SCT,0.00,0.00,VWS V14.01,2013-01-05 06:21:00,
2013-01-05 01:29:00,42.2,36.5,30.31,SSW,192,4.0,13.0,80,0.00,,SCT,0.00,0.00,VWS V14.01,2013-01-05 06:29:00,
2013-01-05 01:35:00,42.2,36.5,30.31,SSW,192,4.0,13.0,80,0.00,,SCT,0.00,0.00,VWS V14.01,2013-01-05 06:35:00,
2013-01-05 01:44:00,42.2,36.5,30.31,SSW,192,4.0,13.0,80,0.00,,SCT,0.00,0.00,VWS V14.01,2013-01-05 06:44:00,
2013-01-05 01:49:00,42.2,36.5,30.31,SSW,192,4.0,13.0,80,0.00,,SCT,0.00,0.00,VWS V14.01,2013-01-05 06:49:00,
2013-01-05 01:58:00,42.2,36.5,30.31,SSW,192,4.0,13.0,80,0.00,,SCT,0.00,0.00,VWS V14.01,2013-01-05 06:58:00,
2013-01-05 02:00:00,40.8,22.1,30.35,NE,45,6.0,16.0,47,0.00,,SCT,0.00,0.00,VWS V14.01,2013-01-05 07:00:00,
2013-01-05 02:04:00,42.2,36.5,30.31,SSW,192,4.0,13.0,80,0.00,,SCT,0.00,0.00,VWS V14.01,2013-01-05 07:04:00,
2013-01-05 02:09:00,42.2,36.5,30.31,SSW,192,4.0,13.0,80,0.00,,SCT,0.00,0.00,VWS V14.01,2013-01-05 07:09:00,
2013-01-05 02:16:00,42.2,36.5,30.31,SSW,192,4.0,13.0,80,0.00,,SCT,0.00,0.00,VWS V14.01,2013-01-05 07:16:00,
2013-01-05 02:21:00,42.2,36.5,30.31,SSW,192,4.0,13.0,80,0.00,,SCT,0.00,0.00,VWS V14.01,2013-01-05 07:21:00,
2013-01-05 02:27:00,42.2,36.5,30.31,SSW,192,4.0,13.0,80,0.00,,SCT,0.00,0.00,VWS V14.01,2013-01-05 07:27:00,
2013-01-05 02:32:00,42.2,36.5,30.31,SSW,192,4.0,13.0,80,0.00,,SCT,0.00,0.00,VWS V14.01,2013-01-05 07:32:00,
2013-01-05 02:37:00,42.2,36.5,30.31,SSW,192,4.0,13.0,80,0.00,,SCT,0.00,0.00,VWS V14.01,2013-01-05 07:37:00,
2013-01-05 02:42:00,42.2,36.5,30.31,SSW,192,4.0,13.0,80,0.00,,SCT,0.00,0.00,VWS V14.01,2013-01-05 07:42:00,
2013-01-05 02:47:00,42.2,36.5,30.31,SSW,192,4.0,13.0,80,0.00,,SCT,0.00,0.00,VWS V14.01,2013-01-05 07:47:00,
2013-01-05 02:54:00,42.2,36.5,30.31,SSW,192,4.0,13.0,80,0.00,,SCT,0.00,0.00,VWS V14.01,2013-01-05 07:54:00,
2013-01-05 02:59:00,42.2,36.5,30.31,SSW,192,4.0,13.0,80,0.00,,SCT,0.00,0.00,VWS V14.01,2013-01-05 07:59:00,
2013-01-05 03:00:00,40.5,22.4,30.37,NE,45,5.0,13.0,48,0.00,,SCT,0.00,0.00,VWS V14.01,2013-01-05 08:00:00,
2013-01-05 03:04:00,42.2,36.5,30.31,SSW,192,4.0,13.0,80,0.00,,SCT,0.00,0.00,VWS V14.01,2013-01-05 08:04:00,
2013-01-05 03:11:00,42.2,36.5,30.31,SSW,192,4.0,13.0,80,0.00,,SCT,0.00,0.00,VWS V14.01,2013-01-05 08:11:00,
2013-01-05 03:16:00,42.2,36.5,30.31,SSW,192,4.0,13.0,80,0.00,,SCT,0.00,0.00,VWS V14.01,2013-01-05 08:16:00,
2013-01-05 03:26:00,42.2,36.5,30.31,SSW,192,4.0,13.0,80,0.00,,SCT,0.00,0.00,VWS V14.01,2013-01-05 08:26:00,
2013-01-05 03:31:00,42.2,36.5,30.31,SSW,192,4.0,13.0,80,0.00,,SCT,0.00,0.00,VWS V14.01,2013-01-05 08:31:00,
2013-01-05 03:38:00,42.2,36.5,30.31,SSW,192,4.0,13.0,80,0.00,,SCT,0.00,0.00,VWS V14.01,2013-01-05 08:38:00,
2013-01-05 03:44:00,42.2,36.5,30.31,SSW,192,4.0,13.0,80,0.00,,SCT,0.00,0.00,VWS V14.01,2013-01-05 08:44:00,
2013-01-05 03:49:00,42.2,36.5,30.31,SSW,192,4.0,13.0,80,0.00,,SCT,0.00,0.00,VWS V14.01,2013-01-05 08:49:00,
2013-01-05 03:54:00,42.2,36.5,30.31,SSW,192,4.0,13.0,80,0.00,,SCT,0.00,0.00,VWS V14.01,2013-01-05 08:54:00,
2013-01-05 03:59:00,42.2,36.5,30.31,SSW,192,4.0,13.0,80,0.00,,SCT,0.00,0.00,VWS V14.01,2013-01-05 08:59:00,
2013-01-05 04:00:00,39.7,21.6,30.37,NNE,22,4.0,9.0,48,0.00,,SCT,0.00,0.00,VWS V14.01,2013-01-05 09:00:00,
2013-01-05 04:13:00,42.2,36.5,30.31,SSW,192,4.0,13.0,80,0.00,,SCT,0.00,0.00,VWS V14.01,2013-01-05 09:13:00,
2013-01-05 04:31:00,42.2,36.5,30.31,SSW,192,4.0,13.0,80,0.00,,SCT,0.00,0.00,VWS V14.01,2013-01-05 09:31:00,
2013-01-05 04:36:00,42.2,36.5,30.31,SSW,192,4.0,13.0,80,0.00,,SCT,0.00,0.00,VWS V14.01,2013-01-05 09:36:00,
2013-01-05 04:45:00,42.2,36.5,30.31,SSW,192,4.0,13.0,80,0.00,,SCT,0.00,0.00,VWS V14.01,2013-01-05 09:45:00,
2013-01-05 04:54:00,42.2,36.5,30.31,SSW,192,4.0,13.0,80,0.00,,SCT,0.00,0.00,VWS V14.01,2013-01-05 09:54:00,
2013-01-05 05:00:00,39.3,21.8,30.40,NNE,22,4.0,7.0,49,0.00,,SCT,0.00,0.00,VWS V14.01,2013-01-05 10:00:00,
2013-01-05 05:08:00,42.2,36.5,30.31,SSW,192,4.0,13.0,80,0.00,,SCT,0.00,0.00,VWS V14.01,2013-01-05 10:08:00,
2013-01-05 05:13:00,42.2,36.5,30.31,SSW,192,4.0,13.0,80,0.00,,SCT,0.00,0.00,VWS V14.01,2013-01-05 10:13:00,
2013-01-05 05:22:00,42.2,36.5,30.31,SSW,192,4.0,13.0,80,0.00,,SCT,0.00,0.00,VWS V14.01,2013-01-05 10:22:00,
2013-01-05 05:28:00,42.2,36.5,30.31,SSW,192,4.0,13.0,80,0.00,,SCT,0.00,0.00,VWS V14.01,2013-01-05 10:28:00,
2013-01-05 05:34:00,42.2,36.5,30.31,SSW,192,4.0,13.0,80,0.00,,SCT,0.00,0.00,VWS V14.01,2013-01-05 10:34:00,
2013-01-05 05:40:00,42.2,36.5,30.31,SSW,192,4.0,13.0,80,0.00,,SCT,0.00,0.00,VWS V14.01,2013-01-05 10:40:00,
2013-01-05 05:45:00,42.2,36.5,30.31,SSW,192,4.0,13.0,80,0.00,,SCT,0.00,0.00,VWS V14.01,2013-01-05 10:45:00,
2013-01-05 05:51:00,42.2,36.5,30.31,SSW,192,4.0,13.0,80,0.00,,SCT,0.00,0.00,VWS V14.01,2013-01-05 10:51:00,
2013-01-05 06:00:00,42.2,36.5,30.31,SSW,192,4.0,13.0,80,0.00,,SCT,0.00,0.00,VWS V14.01,2013-01-05 11:00:00,
2013-01-05 06:05:00,42.2,36.5,30.31,SSW,192,4.0,13.0,80,0.00,,SCT,0.00,0.00,VWS V14.01,2013-01-05 11:05:00,
2013-01-05 06:10:00,42.2,36.5,30.31,SSW,192,4.0,13.0,80,0.00,,SCT,0.00,0.00,VWS V14.01,2013-01-05 11:10:00,
2013-01-05 06:18:00,42.2,36.5,30.31,SSW,192,4.0,13.0,80,0.00,,SCT,0.00,0.00,VWS V14.01,2013-01-05 11:18:00,
2013-01-05 06:23:00,42.2,36.5,30.31,SSW,192,4.0,13.0,80,0.00,,SCT,0.00,0.00,VWS V14.01,2013-01-05 11:23:00,
2013-01-05 06:29:00,42.2,36.5,30.31,SSW,192,4.0,13.0,80,0.00,,SCT,0.00,0.00,VWS V14.01,2013-01-05 11:29:00,
2013-01-05 06:34:00,42.2,36.5,30.31,SSW,192,4.0,13.0,80,0.00,,SCT,0.00,0.00,VWS V14.01,2013-01-05 11:34:00,
2013-01-05 06:43:00,42.2,36.5,30.31,SSW,192,4.0,13.0,80,0.00,,SCT,0.00,0.00,VWS V14.01,2013-01-05 11:43:00,
2013-01-05 06:59:00,42.2,36.5,30.31,SSW,192,4.0,13.0,80,0.00,,SCT,0.00,0.00,VWS V14.01,2013-01-05 11:59:00,
2013-01-05 07:00:00,38.5,22.0,30.42,NNW,338,4.0,12.0,51,0.00,,SCT,0.00,0.00,VWS V14.01,2013-01-05 12:00:00,
2013-01-05 07:04:00,42.2,36.5,30.31,SSW,192,4.0,13.0,80,0.00,,SCT,0.00,0.00,VWS V14.01,2013-01-05 12:04:00,
2013-01-05 07:09:00,42.2,36.5,30.31,SSW,192,4.0,13.0,80,0.00,,SCT,0.00,0.00,VWS V14.01,2013-01-05 12:09:00,
2013-01-05 07:14:00,42.2,36.5,30.31,SSW,192,4.0,13.0,80,0.00,,SCT,0.00,0.00,VWS V14.01,2013-01-05 12:14:00,
2013-01-05 07:20:00,42.2,36.5,30.31,SSW,192,4.0,13.0,80,0.00,,SCT,0.00,0.00,VWS V14.01,2013-01-05 12:20:00,
2013-01-05 07:27:00,42.2,36.5,30.31,SSW,192,4.0,13.0,80,0.00,,SCT,0.00,0.00,VWS V14.01,2013-01-05 12:27:00,
2013-01-05 07:34:00,42.2,36.5,30.31,SSW,192,4.0,13.0,80,0.00,,SCT,0.00,0.00,VWS V14.01,2013-01-05 12:34:00,
2013-01-05 07:41:00,42.2,36.5,30.31,SSW,192,4.0,13.0,80,0.00,,SCT,0.00,0.00,VWS V14.01,2013-01-05 12:41:00,
2013-01-05 07:46:00,42.2,36.5,30.31,SSW,192,4.0,13.0,80,0.00,,SCT,0.00,0.00,VWS V14.01,2013-01-05 12:46:00,
2013-01-05 07:51:00,42.2,36.5,30.31,SSW,192,4.0,13.0,80,0.00,,SCT,0.00,0.00,VWS V14.01,2013-01-05 12:51:00,
2013-01-05 07:57:00,42.2,36.5,30.31,SSW,192,4.0,13.0,80,0.00,,SCT,0.00,0.00,VWS V14.01,2013-01-05 12:57:00,
2013-01-05 08:00:00,37.2,23.8,30.46,NNW,338,1.0,4.0,58,0.00,,SCT,0.00,3.00,VWS V14.01,2013-01-05 13:00:00,
2013-01-05 08:02:00,42.2,36.5,30.31,SSW,192,4.0,13.0,80,0.00,,SCT,0.00,0.00,VWS V14.01,2013-01-05 13:02:00,
2013-01-05 08:08:00,42.2,36.5,30.31,SSW,192,4.0,13.0,80,0.00,,SCT,0.00,0.00,VWS V14.01,2013-01-05 13:08:00,
2013-01-05 08:17:00,42.2,36.5,30.31,SSW,192,4.0,13.0,80,0.00,,SCT,0.00,0.00,VWS V14.01,2013-01-05 13:17:00,
2013-01-05 08:24:00,42.2,36.5,30.31,SSW,192,4.0,13.0,80,0.00,,SCT,0.00,0.00,VWS V14.01,2013-01-05 13:24:00,
2013-01-05 08:29:00,42.2,36.5,30.31,SSW,192,4.0,13.0,80,0.00,,SCT,0.00,0.00,VWS V14.01,2013-01-05 13:29:00,
2013-01-05 08:38:00,42.2,36.5,30.31,SSW,192,4.0,13.0,80,0.00,,SCT,0.00,0.00,VWS V14.01,2013-01-05 13:38:00,
2013-01-05 08:45:00,42.2,36.5,30.31,SSW,192,4.0,13.0,80,0.00,,SCT,0.00,0.00,VWS V14.01,2013-01-05 13:45:00,
2013-01-05 08:51:00,42.2,36.5,30.31,SSW,192,4.0,13.0,80,0.00,,SCT,0.00,0.00,VWS V14.01,2013-01-05 13:51:00,
2013-01-05 08:56:00,42.2,36.5,30.31,SSW,192,4.0,13.0,80,0.00,,SCT,0.00,0.00,VWS V14.01,2013-01-05 13:56:00,
2013-01-05 09:00:00,34.9,24.3,30.48,North,0,0.0,4.0,65,0.00,,SCT,0.00,94.00,VWS V14.01,2013-01-05 14:00:00,
2013-01-05 09:02:00,42.2,36.5,30.31,SSW,192,4.0,13.0,80,0.00,,SCT,0.00,0.00,VWS V14.01,2013-01-05 14:02:00,
2013-01-05 09:11:00,42.2,36.5,30.31,SSW,192,4.0,13.0,80,0.00,,SCT,0.00,0.00,VWS V14.01,2013-01-05 14:11:00,
2013-01-05 09:16:00,42.2,36.5,30.31,SSW,192,4.0,13.0,80,0.00,,SCT,0.00,0.00,VWS V14.01,2013-01-05 14:16:00,
2013-01-05 09:22:00,42.2,36.5,30.31,SSW,192,4.0,13.0,80,0.00,,SCT,0.00,0.00,VWS V14.01,2013-01-05 14:22:00,
2013-01-05 09:28:00,42.2,36.5,30.31,SSW,192,4.0,13.0,80,0.00,,SCT,0.00,0.00,VWS V14.01,2013-01-05 14:28:00,
2013-01-05 09:35:00,42.2,36.5,30.31,SSW,192,4.0,13.0,80,0.00,,SCT,0.00,0.00,VWS V14.01,2013-01-05 14:35:00,
2013-01-05 09:43:00,42.2,36.5,30.31,SSW,192,4.0,13.0,80,0.00,,SCT,0.00,0.00,VWS V14.01,2013-01-05 14:43:00,
2013-01-05 09:48:00,42.2,36.5,30.31,SSW,192,4.0,13.0,80,0.00,,SCT,0.00,0.00,VWS V14.01,2013-01-05 14:48:00,
2013-01-05 09:53:00,42.2,36.5,30.31,SSW,192,4.0,13.0,80,0.00,,SCT,0.00,0.00,VWS V14.01,2013-01-05 14:53:00,
2013-01-05 09:59:00,42.2,36.5,30.31,SSW,192,4.0,13.0,80,0.00,,SCT,0.00,0.00,VWS V14.01,2013-01-05 14:59:00,
2013-01-05 10:00:00,38.8,19.8,30.51,North,0,0.0,4.0,46,0.00,,SCT,0.00,257.00,VWS V14.01,2013-01-05 15:00:00,
2013-01-05 10:04:00,42.2,36.5,30.31,SSW,192,4.0,13.0,80,0.00,,SCT,0.00,0.00,VWS V14.01,2013-01-05 15:04:00,
2013-01-05 10:09:00,42.2,36.5,30.31,SSW,192,4.0,13.0,80,0.00,,SCT,0.00,0.00,VWS V14.01,2013-01-05 15:09:00,
2013-01-05 10:15:00,42.2,36.5,30.31,SSW,192,4.0,13.0,80,0.00,,SCT,0.00,0.00,VWS V14.01,2013-01-05 15:15:00,
2013-01-05 10:26:00,42.2,36.5,30.31,SSW,192,4.0,13.0,80,0.00,,SCT,0.00,0.00,VWS V14.01,2013-01-05 15:26:00,
2013-01-05 10:31:00,42.2,36.5,30.31,SSW,192,4.0,13.0,80,0.00,,SCT,0.00,0.00,VWS V14.01,2013-01-05 15:31:00,
2013-01-05 10:37:00,42.2,36.5,30.31,SSW,192,4.0,13.0,80,0.00,,SCT,0.00,0.00,VWS V14.01,2013-01-05 15:37:00,
2013-01-05 10:42:00,42.2,36.5,30.31,SSW,192,4.0,13.0,80,0.00,,SCT,0.00,0.00,VWS V14.01,2013-01-05 15:42:00,
2013-01-05 10:49:00,42.2,36.5,30.31,SSW,192,4.0,13.0,80,0.00,,SCT,0.00,0.00,VWS V14.01,2013-01-05 15:49:00,
2013-01-05 10:56:00,42.2,36.5,30.31,SSW,192,4.0,13.0,80,0.00,,SCT,0.00,0.00,VWS V14.01,2013-01-05 15:56:00,
2013-01-05 11:00:00,44.7,20.7,30.50,ENE,68,2.0,8.0,38,0.00,,SCT,0.00,371.00,VWS V14.01,2013-01-05 16:00:00,
2013-01-05 11:02:00,42.2,36.5,30.31,SSW,192,4.0,13.0,80,0.00,,SCT,0.00,0.00,VWS V14.01,2013-01-05 16:02:00,
2013-01-05 11:08:00,42.2,36.5,30.31,SSW,192,4.0,13.0,80,0.00,,SCT,0.00,0.00,VWS V14.01,2013-01-05 16:08:00,
2013-01-05 11:15:00,42.2,36.5,30.31,SSW,192,4.0,13.0,80,0.00,,SCT,0.00,0.00,VWS V14.01,2013-01-05 16:15:00,
2013-01-05 11:22:00,42.2,36.5,30.31,SSW,192,4.0,13.0,80,0.00,,SCT,0.00,0.00,VWS V14.01,2013-01-05 16:22:00,
2013-01-05 11:27:00,42.2,36.5,30.31,SSW,192,4.0,13.0,80,0.00,,SCT,0.00,0.00,VWS V14.01,2013-01-05 16:27:00,
2013-01-05 11:34:00,42.2,36.5,30.31,SSW,192,4.0,13.0,80,0.00,,SCT,0.00,0.00,VWS V14.01,2013-01-05 16:34:00,
2013-01-05 11:39:00,42.2,36.5,30.31,SSW,192,4.0,13.0,80,0.00,,SCT,0.00,0.00,VWS V14.01,2013-01-05 16:39:00,
2013-01-05 11:44:00,42.2,36.5,30.31,SSW,192,4.0,13.0,80,0.00,,SCT,0.00,0.00,VWS V14.01,2013-01-05 16:44:00,
2013-01-05 11:53:00,42.2,36.5,30.31,SSW,192,4.0,13.0,80,0.00,,SCT,0.00,0.00,VWS V14.01,2013-01-05 16:53:00,
2013-01-05 11:59:00,42.2,36.5,30.31,SSW,192,4.0,13.0,80,0.00,,SCT,0.00,0.00,VWS V14.01,2013-01-05 16:59:00,
2013-01-05 12:00:00,47.8,20.1,30.48,NE,45,3.0,10.0,33,0.00,,SCT,0.00,419.00,VWS V14.01,2013-01-05 17:00:00,
2013-01-05 12:04:00,42.2,36.5,30.31,SSW,192,4.0,13.0,80,0.00,,SCT,0.00,0.00,VWS V14.01,2013-01-05 17:04:00,
2013-01-05 12:09:00,42.2,36.5,30.31,SSW,192,4.0,13.0,80,0.00,,SCT,0.00,0.00,VWS V14.01,2013-01-05 17:09:00,
2013-01-05 12:14:00,42.2,36.5,30.31,SSW,192,4.0,13.0,80,0.00,,SCT,0.00,0.00,VWS V14.01,2013-01-05 17:14:00,
2013-01-05 12:21:00,42.2,36.5,30.31,SSW,192,4.0,13.0,80,0.00,,SCT,0.00,0.00,VWS V14.01,2013-01-05 17:21:00,
2013-01-05 12:30:00,42.2,36.5,30.31,SSW,192,4.0,13.0,80,0.00,,SCT,0.00,0.00,VWS V14.01,2013-01-05 17:30:00,
2013-01-05 12:35:00,42.2,36.5,30.31,SSW,192,4.0,13.0,80,0.00,,SCT,0.00,0.00,VWS V14.01,2013-01-05 17:35:00,
2013-01-05 12:42:00,42.2,36.5,30.31,SSW,192,4.0,13.0,80,0.00,,SCT,0.00,0.00,VWS V14.01,2013-01-05 17:42:00,
2013-01-05 12:47:00,42.2,36.5,30.31,SSW,192,4.0,13.0,80,0.00,,SCT,0.00,0.00,VWS V14.01,2013-01-05 17:47:00,
2013-01-05 12:55:00,42.2,36.5,30.31,SSW,192,4.0,13.0,80,0.00,,SCT,0.00,0.00,VWS V14.01,2013-01-05 17:55:00,
2013-01-05 13:00:00,42.2,36.5,30.31,SSW,192,4.0,13.0,80,0.00,,SCT,0.00,0.00,VWS V14.01,2013-01-05 18:00:00,
2013-01-05 13:05:00,42.2,36.5,30.31,SSW,192,4.0,13.0,80,0.00,,SCT,0.00,0.00,VWS V14.01,2013-01-05 18:05:00,
2013-01-05 13:11:00,42.2,36.5,30.31,SSW,192,4.0,13.0,80,0.00,,SCT,0.00,0.00,VWS V14.01,2013-01-05 18:11:00,
2013-01-05 13:17:00,42.2,36.5,30.31,SSW,192,4.0,13.0,80,0.00,,SCT,0.00,0.00,VWS V14.01,2013-01-05 18:17:00,
2013-01-05 13:25:00,42.2,36.5,30.31,SSW,192,4.0,13.0,80,0.00,,SCT,0.00,0.00,VWS V14.01,2013-01-05 18:25:00,
2013-01-05 13:32:00,42.2,36.5,30.31,SSW,192,4.0,13.0,80,0.00,,SCT,0.00,0.00,VWS V14.01,2013-01-05 18:32:00,
2013-01-05 13:42:00,42.2,36.5,30.31,SSW,192,4.0,13.0,80,0.00,,SCT,0.00,0.00,VWS V14.01,2013-01-05 18:42:00,
2013-01-05 13:47:00,42.2,36.5,30.31,SSW,192,4.0,13.0,80,0.00,,SCT,0.00,0.00,VWS V14.01,2013-01-05 18:47:00,
2013-01-05 13:54:00,42.2,36.5,30.31,SSW,192,4.0,13.0,80,0.00,,SCT,0.00,0.00,VWS V14.01,2013-01-05 18:54:00,
2013-01-05 13:59:00,42.2,36.5,30.31,SSW,192,4.0,13.0,80,0.00,,SCT,0.00,0.00,VWS V14.01,2013-01-05 18:59:00,
2013-01-05 14:00:00,51.2,20.9,30.41,NE,45,1.0,5.0,30,0.00,,SCT,0.00,358.00,VWS V14.01,2013-01-05 19:00:00,
2013-01-05 14:12:00,42.2,36.5,30.31,SSW,192,4.0,13.0,80,0.00,,SCT,0.00,0.00,VWS V14.01,2013-01-05 19:12:00,
2013-01-05 14:19:00,42.2,36.5,30.31,SSW,192,4.0,13.0,80,0.00,,SCT,0.00,0.00,VWS V14.01,2013-01-05 19:19:00,
2013-01-05 14:26:00,42.2,36.5,30.31,SSW,192,4.0,13.0,80,0.00,,SCT,0.00,0.00,VWS V14.01,2013-01-05 19:26:00,
2013-01-05 14:31:00,42.2,36.5,30.31,SSW,192,4.0,13.0,80,0.00,,SCT,0.00,0.00,VWS V14.01,2013-01-05 19:31:00,
2013-01-05 14:37:00,42.2,36.5,30.31,SSW,192,4.0,13.0,80,0.00,,SCT,0.00,0.00,VWS V14.01,2013-01-05 19:37:00,
2013-01-05 14:42:00,42.2,36.5,30.31,SSW,192,4.0,13.0,80,0.00,,SCT,0.00,0.00,VWS V14.01,2013-01-05 19:42:00,
2013-01-05 14:51:00,42.2,36.5,30.31,SSW,192,4.0,13.0,80,0.00,,SCT,0.00,0.00,VWS V14.01,2013-01-05 19:51:00,
2013-01-05 15:00:00,51.9,23.7,30.40,NNE,22,3.0,9.0,33,0.00,,SCT,0.00,243.00,VWS V14.01,2013-01-05 20:00:00,
2013-01-05 15:08:00,42.2,36.5,30.31,SSW,192,4.0,13.0,80,0.00,,SCT,0.00,0.00,VWS V14.01,2013-01-05 20:08:00,
2013-01-05 15:16:00,42.2,36.5,30.31,SSW,192,4.0,13.0,80,0.00,,SCT,0.00,0.00,VWS V14.01,2013-01-05 20:16:00,
2013-01-05 15:25:00,42.2,36.5,30.31,SSW,192,4.0,13.0,80,0.00,,SCT,0.00,0.00,VWS V14.01,2013-01-05 20:25:00,
2013-01-05 15:31:00,42.2,36.5,30.31,SSW,192,4.0,13.0,80,0.00,,SCT,0.00,0.00,VWS V14.01,2013-01-05 20:31:00,
2013-01-05 15:36:00,42.2,36.5,30.31,SSW,192,4.0,13.0,80,0.00,,SCT,0.00,0.00,VWS V14.01,2013-01-05 20:36:00,
2013-01-05 15:43:00,42.2,36.5,30.31,SSW,192,4.0,13.0,80,0.00,,SCT,0.00,0.00,VWS V14.01,2013-01-05 20:43:00,
2013-01-05 15:48:00,42.2,36.5,30.31,SSW,192,4.0,13.0,80,0.00,,SCT,0.00,0.00,VWS V14.01,2013-01-05 20:48:00,
2013-01-05 15:55:00,42.2,36.5,30.31,SSW,192,4.0,13.0,80,0.00,,SCT,0.00,0.00,VWS V14.01,2013-01-05 20:55:00,
2013-01-05 16:00:00,51.1,23.0,30.41,WNW,292,4.0,9.0,33,0.00,,SCT,0.00,153.00,VWS V14.01,2013-01-05 21:00:00,
2013-01-05 16:06:00,42.2,36.5,30.31,SSW,192,4.0,13.0,80,0.00,,SCT,0.00,0.00,VWS V14.01,2013-01-05 21:06:00,
2013-01-05 16:13:00,42.2,36.5,30.31,SSW,192,4.0,13.0,80,0.00,,SCT,0.00,0.00,VWS V14.01,2013-01-05 21:13:00,
2013-01-05 16:18:00,42.2,36.5,30.31,SSW,192,4.0,13.0,80,0.00,,SCT,0.00,0.00,VWS V14.01,2013-01-05 21:18:00,
2013-01-05 16:34:00,42.2,36.5,30.31,SSW,192,4.0,13.0,80,0.00,,SCT,0.00,0.00,VWS V14.01,2013-01-05 21:34:00,
2013-01-05 16:42:00,42.2,36.5,30.31,SSW,192,4.0,13.0,80,0.00,,SCT,0.00,0.00,VWS V14.01,2013-01-05 21:42:00,
2013-01-05 16:47:00,42.2,36.5,30.31,SSW,192,4.0,13.0,80,0.00,,SCT,0.00,0.00,VWS V14.01,2013-01-05 21:47:00,
2013-01-05 16:55:00,42.2,36.5,30.31,SSW,192,4.0,13.0,80,0.00,,SCT,0.00,0.00,VWS V14.01,2013-01-05 21:55:00,
2013-01-05 17:00:00,50.1,22.8,30.40,NW,315,2.0,6.0,34,0.00,,SCT,0.00,53.00,VWS V14.01,2013-01-05 22:00:00,
2013-01-05 17:01:00,42.2,36.5,30.31,SSW,192,4.0,13.0,80,0.00,,SCT,0.00,0.00,VWS V14.01,2013-01-05 22:01:00,
2013-01-05 17:07:00,42.2,36.5,30.31,SSW,192,4.0,13.0,80,0.00,,SCT,0.00,0.00,VWS V14.01,2013-01-05 22:07:00,
2013-01-05 17:13:00,42.2,36.5,30.31,SSW,192,4.0,13.0,80,0.00,,SCT,0.00,0.00,VWS V14.01,2013-01-05 22:13:00,
2013-01-05 17:18:00,42.2,36.5,30.31,SSW,192,4.0,13.0,80,0.00,,SCT,0.00,0.00,VWS V14.01,2013-01-05 22:18:00,
2013-01-05 17:23:00,42.2,36.5,30.31,SSW,192,4.0,13.0,80,0.00,,SCT,0.00,0.00,VWS V14.01,2013-01-05 22:23:00,
2013-01-05 17:32:00,42.2,36.5,30.31,SSW,192,4.0,13.0,80,0.00,,SCT,0.00,0.00,VWS V14.01,2013-01-05 22:32:00,
2013-01-05 17:38:00,42.2,36.5,30.31,SSW,192,4.0,13.0,80,0.00,,SCT,0.00,0.00,VWS V14.01,2013-01-05 22:38:00,
2013-01-05 17:45:00,42.2,36.5,30.31,SSW,192,4.0,13.0,80,0.00,,SCT,0.00,0.00,VWS V14.01,2013-01-05 22:45:00,
2013-01-05 18:00:00,47.8,24.7,30.38,NW,315,3.0,5.0,40,0.00,,SCT,0.00,1.00,VWS V14.01,2013-01-05 23:00:00,
2013-01-05 18:02:00,42.2,36.5,30.31,SSW,192,4.0,13.0,80,0.00,,SCT,0.00,0.00,VWS V14.01,2013-01-05 23:02:00,
2013-01-05 18:08:00,42.2,36.5,30.31,SSW,192,4.0,13.0,80,0.00,,SCT,0.00,0.00,VWS V14.01,2013-01-05 23:08:00,
2013-01-05 18:13:00,42.2,36.5,30.31,SSW,192,4.0,13.0,80,0.00,,SCT,0.00,0.00,VWS V14.01,2013-01-05 23:13:00,
2013-01-05 18:18:00,42.2,36.5,30.31,SSW,192,4.0,13.0,80,0.00,,SCT,0.00,0.00,VWS V14.01,2013-01-05 23:18:00,
2013-01-05 18:23:00,42.2,36.5,30.31,SSW,192,4.0,13.0,80,0.00,,SCT,0.00,0.00,VWS V14.01,2013-01-05 23:23:00,
2013-01-05 18:28:00,42.2,36.5,30.31,SSW,192,4.0,13.0,80,0.00,,SCT,0.00,0.00,VWS V14.01,2013-01-05 23:28:00,
2013-01-05 18:33:00,42.2,36.5,30.31,SSW,192,4.0,13.0,80,0.00,,SCT,0.00,0.00,VWS V14.01,2013-01-05 23:33:00,
2013-01-05 18:39:00,42.2,36.5,30.31,SSW,192,4.0,13.0,80,0.00,,SCT,0.00,0.00,VWS V14.01,2013-01-05 23:39:00,
2013-01-05 18:44:00,42.2,36.5,30.31,SSW,192,4.0,13.0,80,0.00,,SCT,0.00,0.00,VWS V14.01,2013-01-05 23:44:00,
2013-01-05 18:49:00,42.2,36.5,30.31,SSW,192,4.0,13.0,80,0.00,,SCT,0.00,0.00,VWS V14.01,2013-01-05 23:49:00,
2013-01-05 18:54:00,42.2,36.5,30.31,SSW,192,4.0,13.0,80,0.00,,SCT,0.00,0.00,VWS V14.01,2013-01-05 23:54:00,
2013-01-05 19:00:00,47.1,25.2,30.38,WNW,292,5.0,9.0,42,0.00,,SCT,0.00,0.00,VWS V14.01,2013-01-06 00:00:00,
2013-01-05 19:01:00,42.2,36.5,30.31,SSW,192,4.0,13.0,80,0.00,,SCT,0.00,0.00,VWS V14.01,2013-01-06 00:01:00,
2013-01-05 19:07:00,42.2,36.5,30.31,SSW,192,4.0,13.0,80,0.00,,SCT,0.00,0.00,VWS V14.01,2013-01-06 00:07:00,
2013-01-05 19:12:00,42.2,36.5,30.31,SSW,192,4.0,13.0,80,0.00,,SCT,0.00,0.00,VWS V14.01,2013-01-06 00:12:00,
2013-01-05 19:18:00,42.2,36.5,30.31,SSW,192,4.0,13.0,80,0.00,,SCT,0.00,0.00,VWS V14.01,2013-01-06 00:18:00,
2013-01-05 19:24:00,42.2,36.5,30.31,SSW,192,4.0,13.0,80,0.00,,SCT,0.00,0.00,VWS V14.01,2013-01-06 00:24:00,
2013-01-05 19:29:00,42.2,36.5,30.31,SSW,192,4.0,13.0,80,0.00,,SCT,0.00,0.00,VWS V14.01,2013-01-06 00:29:00,
2013-01-05 19:38:00,42.2,36.5,30.31,SSW,192,4.0,13.0,80,0.00,,SCT,0.00,0.00,VWS V14.01,2013-01-06 00:38:00,
2013-01-05 19:45:00,42.2,36.5,30.31,SSW,192,4.0,13.0,80,0.00,,SCT,0.00,0.00,VWS V14.01,2013-01-06 00:45:00,
2013-01-05 19:50:00,42.2,36.5,30.31,SSW,192,4.0,13.0,80,0.00,,SCT,0.00,0.00,VWS V14.01,2013-01-06 00:50:00,
2013-01-05 19:56:00,42.2,36.5,30.31,SSW,192,4.0,13.0,80,0.00,,SCT,0.00,0.00,VWS V14.01,2013-01-06 00:56:00,
2013-01-05 20:00:00,47.4,25.5,30.38,NW,315,4.0,15.0,42,0.00,,SCT,0.00,0.00,VWS V14.01,2013-01-06 01:00:00,
2013-01-05 20:04:00,42.2,36.5,30.31,SSW,192,4.0,13.0,80,0.00,,SCT,0.00,0.00,VWS V14.01,2013-01-06 01:04:00,
2013-01-05 20:09:00,42.2,36.5,30.31,SSW,192,4.0,13.0,80,0.00,,SCT,0.00,0.00,VWS V14.01,2013-01-06 01:09:00,
2013-01-05 20:15:00,42.2,36.5,30.31,SSW,192,4.0,13.0,80,0.00,,SCT,0.00,0.00,VWS V14.01,2013-01-06 01:15:00,
2013-01-05 20:22:00,42.2,36.5,30.31,SSW,192,4.0,13.0,80,0.00,,SCT,0.00,0.00,VWS V14.01,2013-01-06 01:22:00,
2013-01-05 20:27:00,42.2,36.5,30.31,SSW,192,4.0,13.0,80,0.00,,SCT,0.00,0.00,VWS V14.01,2013-01-06 01:27:00,
2013-01-05 20:33:00,42.2,36.5,30.31,SSW,192,4.0,13.0,80,0.00,,SCT,0.00,0.00,VWS V14.01,2013-01-06 01:33:00,
2013-01-05 20:41:00,42.2,36.5,30.31,SSW,192,4.0,13.0,80,0.00,,SCT,0.00,0.00,VWS V14.01,2013-01-06 01:41:00,
2013-01-05 20:52:00,42.2,36.5,30.31,SSW,192,4.0,13.0,80,0.00,,SCT,0.00,0.00,VWS V14.01,2013-01-06 01:52:00,
2013-01-05 20:57:00,42.2,36.5,30.31,SSW,192,4.0,13.0,80,0.00,,SCT,0.00,0.00,VWS V14.01,2013-01-06 01:57:00,
2013-01-05 21:00:00,46.4,26.2,30.36,NNE,22,3.0,12.0,45,0.00,,SCT,0.00,0.00,VWS V14.01,2013-01-06 02:00:00,
2013-01-05 21:02:00,42.2,36.5,30.31,SSW,192,4.0,13.0,80,0.00,,SCT,0.00,0.00,VWS V14.01,2013-01-06 02:02:00,
2013-01-05 21:07:00,42.2,36.5,30.31,SSW,192,4.0,13.0,80,0.00,,SCT,0.00,0.00,VWS V14.01,2013-01-06 02:07:00,
2013-01-05 21:13:00,42.2,36.5,30.31,SSW,192,4.0,13.0,80,0.00,,SCT,0.00,0.00,VWS V14.01,2013-01-06 02:13:00,
2013-01-05 21:19:00,42.2,36.5,30.31,SSW,192,4.0,13.0,80,0.00,,SCT,0.00,0.00,VWS V14.01,2013-01-06 02:19:00,
2013-01-05 21:24:00,42.2,36.5,30.31,SSW,192,4.0,13.0,80,0.00,,SCT,0.00,0.00,VWS V14.01,2013-01-06 02:24:00,
2013-01-05 21:29:00,42.2,36.5,30.31,SSW,192,4.0,13.0,80,0.00,,SCT,0.00,0.00,VWS V14.01,2013-01-06 02:29:00,
2013-01-05 21:38:00,42.2,36.5,30.31,SSW,192,4.0,13.0,80,0.00,,SCT,0.00,0.00,VWS V14.01,2013-01-06 02:38:00,
2013-01-05 21:43:00,42.2,36.5,30.31,SSW,192,4.0,13.0,80,0.00,,SCT,0.00,0.00,VWS V14.01,2013-01-06 02:43:00,
2013-01-05 21:50:00,42.2,36.5,30.31,SSW,192,4.0,13.0,80,0.00,,SCT,0.00,0.00,VWS V14.01,2013-01-06 02:50:00,
2013-01-05 22:00:00,42.2,36.5,30.31,SSW,192,4.0,13.0,80,0.00,,SCT,0.00,0.00,VWS V14.01,2013-01-06 03:00:00,
2013-01-05 22:10:00,42.2,36.5,30.31,SSW,192,4.0,13.0,80,0.00,,SCT,0.00,0.00,VWS V14.01,2013-01-06 03:10:00,
2013-01-05 22:20:00,42.2,36.5,30.31,SSW,192,4.0,13.0,80,0.00,,SCT,0.00,0.00,VWS V14.01,2013-01-06 03:20:00,
2013-01-05 22:25:00,42.2,36.5,30.31,SSW,192,4.0,13.0,80,0.00,,SCT,0.00,0.00,VWS V14.01,2013-01-06 03:25:00,
2013-01-05 22:34:00,42.2,36.5,30.31,SSW,192,4.0,13.0,80,0.00,,SCT,0.00,0.00,VWS V14.01,2013-01-06 03:34:00,
2013-01-05 22:48:00,42.2,36.5,30.31,SSW,192,4.0,13.0,80,0.00,,SCT,0.00,0.00,VWS V14.01,2013-01-06 03:48:00,
2013-01-05 22:53:00,42.2,36.5,30.31,SSW,192,4.0,13.0,80,0.00,,SCT,0.00,0.00,VWS V14.01,2013-01-06 03:53:00,
2013-01-05 22:58:00,42.2,36.5,30.31,SSW,192,4.0,13.0,80,0.00,,SCT,0.00,0.00,VWS V14.01,2013-01-06 03:58:00,
2013-01-05 23:00:00,45.3,34.2,30.34,NNE,22,4.0,13.0,65,0.01,,SCT,0.01,0.00,VWS V14.01,2013-01-06 04:00:00,
2013-01-05 23:03:00,42.2,36.5,30.31,SSW,192,4.0,13.0,80,0.00,,SCT,0.00,0.00,VWS V14.01,2013-01-06 04:03:00,
2013-01-05 23:08:00,42.2,36.5,30.31,SSW,192,4.0,13.0,80,0.00,,SCT,0.00,0.00,VWS V14.01,2013-01-06 04:08:00,
2013-01-05 23:13:00,42.2,36.5,30.31,SSW,192,4.0,13.0,80,0.00,,SCT,0.00,0.00,VWS V14.01,2013-01-06 04:13:00,
2013-01-05 23:19:00,42.2,36.5,30.31,SSW,192,4.0,13.0,80,0.00,,SCT,0.00,0.00,VWS V14.01,2013-01-06 04:19:00,
2013-01-05 23:26:00,42.2,36.5,30.31,SSW,192,4.0,13.0,80,0.00,,SCT,0.00,0.00,VWS V14.01,2013-01-06 04:26:00,
2013-01-05 23:31:00,42.2,36.5,30.31,SSW,192,4.0,13.0,80,0.00,,SCT,0.00,0.00,VWS V14.01,2013-01-06 04:31:00,
2013-01-05 23:36:00,42.2,36.5,30.31,SSW,192,4.0,13.0,80,0.00,,SCT,0.00,0.00,VWS V14.01,2013-01-06 04:36:00,
2013-01-05 23:41:00,42.2,36.5,30.31,SSW,192,4.0,13.0,80,0.00,,SCT,0.00,0.00,VWS V14.01,2013-01-06 04:41:00,
2013-01-05 23:46:00,42.2,36.5,30.31,SSW,192,4.0,13.0,80,0.00,,SCT,0.00,0.00,VWS V14.01,2013-01-06 04:46:00,
2013-01-05 23:55:00,42.2,36.5,30.31,SSW,192,4.0,13.0,80,0.00,,SCT,0.00,0.00,VWS V14.01,2013-01-06 04:55:00,